createdAt,value
2023-04-09T00:02:07.401Z,1.52
2023-04-09T00:04:34.928Z,2.05
2023-04-09T00:07:02.236Z,1.48
2023-04-09T00:09:29.481Z,2.70
2023-04-09T00:11:57.192Z,1.83
2023-04-09T00:14:24.834Z,2.50
2023-04-09T00:16:52.100Z,2.92
2023-04-09T00:19:19.402Z,1.80
2023-04-09T00:21:46.653Z,2.67
2023-04-09T00:24:13.876Z,3.15
2023-04-09T00:26:41.336Z,3.13
2023-04-09T00:29:08.640Z,2.92
2023-04-09T00:31:36.003Z,2.85
2023-04-09T00:34:03.402Z,3.17
2023-04-09T00:36:31.001Z,3.38
2023-04-09T00:38:58.935Z,2.13
2023-04-09T00:41:26.208Z,3.20
2023-04-09T00:43:53.522Z,4.30
2023-04-09T00:46:21.078Z,3.85
2023-04-09T00:48:48.351Z,4.15
2023-04-09T00:51:15.608Z,3.58
2023-04-09T00:53:44.034Z,2.53
2023-04-09T00:56:12.921Z,3.50
2023-04-09T00:58:41.857Z,4.85
2023-04-09T01:01:09.120Z,3.65
2023-04-09T01:03:36.702Z,4.35
2023-04-09T01:06:10.248Z,3.65
2023-04-09T01:08:52.493Z,2.92
2023-04-09T01:11:32.307Z,3.90
2023-04-09T01:14:09.517Z,3.88
2023-04-09T01:16:37.880Z,2.95
2023-04-09T01:19:16.885Z,3.58
2023-04-09T01:21:44.974Z,3.92
2023-04-09T01:24:15.518Z,5.95
2023-04-09T01:26:45.934Z,3.65
2023-04-09T01:29:14.004Z,2.05
2023-04-09T01:31:43.261Z,2.75
2023-04-09T01:34:11.051Z,2.92
2023-04-09T01:36:40.799Z,3.63
2023-04-09T01:39:08.495Z,3.55
2023-04-09T01:41:36.290Z,3.78
2023-04-09T01:44:04.601Z,4.43
2023-04-09T01:46:32.633Z,4.15
2023-04-09T01:49:00.151Z,5.78
2023-04-09T01:51:28.008Z,4.30
2023-04-09T01:53:55.309Z,4.80
2023-04-09T01:56:22.613Z,3.80
2023-04-09T01:58:50.165Z,3.80
2023-04-09T02:01:21.539Z,4.30
2023-04-09T02:03:59.294Z,4.35
2023-04-09T02:06:32.621Z,4.07
2023-04-09T02:09:01.972Z,4.22
2023-04-09T02:11:30.288Z,4.35
2023-04-09T02:13:57.772Z,4.55
2023-04-09T02:16:26.390Z,5.07
2023-04-09T02:18:54.945Z,3.80
2023-04-09T02:21:24.157Z,4.43
2023-04-09T02:23:51.600Z,3.95
2023-04-09T02:26:18.835Z,3.42
2023-04-09T02:28:46.101Z,4.00
2023-04-09T02:31:13.386Z,3.67
2023-04-09T02:33:40.907Z,3.22
2023-04-09T02:36:08.204Z,4.13
2023-04-09T02:38:35.500Z,2.13
2023-04-09T02:41:02.733Z,3.40
2023-04-09T02:43:29.947Z,2.85
2023-04-09T02:45:57.312Z,3.67
2023-04-09T02:48:24.755Z,2.85
2023-04-09T02:50:52.053Z,4.10
2023-04-09T02:53:21.526Z,3.55
2023-04-09T02:55:48.858Z,2.13
2023-04-09T02:58:16.133Z,2.58
2023-04-09T03:00:43.431Z,2.63
2023-04-09T03:03:10.966Z,2.92
2023-04-09T03:05:39.054Z,3.15
2023-04-09T03:08:06.420Z,3.00
2023-04-09T03:10:33.674Z,3.88
2023-04-09T03:13:00.918Z,2.90
2023-04-09T03:15:28.168Z,3.13
2023-04-09T03:17:55.608Z,3.90
2023-04-09T03:20:22.858Z,3.95
2023-04-09T03:22:50.336Z,4.30
2023-04-09T03:25:19.548Z,4.15
2023-04-09T03:27:47.010Z,5.38
2023-04-09T03:30:14.266Z,3.78
2023-04-09T03:32:41.568Z,2.38
2023-04-09T03:35:09.053Z,3.65
2023-04-09T03:37:36.349Z,3.05
2023-04-09T03:40:03.939Z,3.50
2023-04-09T03:42:31.374Z,4.75
2023-04-09T03:44:58.629Z,2.63
2023-04-09T03:47:26.040Z,3.97
2023-04-09T03:49:53.344Z,3.13
2023-04-09T03:52:20.573Z,3.85
2023-04-09T03:54:47.923Z,4.82
2023-04-09T03:57:15.462Z,4.47
2023-04-09T03:59:42.773Z,3.95
2023-04-09T04:02:10.055Z,2.53
2023-04-09T04:04:37.455Z,5.22
2023-04-09T04:07:04.876Z,3.70
2023-04-09T04:09:32.136Z,4.70
2023-04-09T04:11:59.412Z,3.58
2023-04-09T04:14:26.766Z,4.60
2023-04-09T04:16:54.050Z,4.03
2023-04-09T04:19:21.294Z,5.55
2023-04-09T04:21:48.539Z,3.50
2023-04-09T04:24:15.834Z,4.20
2023-04-09T04:26:43.201Z,3.63
2023-04-09T04:29:10.471Z,4.38
2023-04-09T04:31:37.809Z,4.60
2023-04-09T04:34:05.083Z,2.90
2023-04-09T04:36:32.346Z,3.25
2023-04-09T04:38:59.642Z,3.55
2023-04-09T04:41:26.924Z,3.50
2023-04-09T04:43:54.243Z,3.78
2023-04-09T04:46:21.564Z,4.10
2023-04-09T04:48:48.824Z,4.40
2023-04-09T04:51:16.240Z,3.38
2023-04-09T04:53:43.523Z,3.72
2023-04-09T04:56:16.757Z,4.72
2023-04-09T04:58:44.081Z,5.60
2023-04-09T05:01:11.319Z,5.35
2023-04-09T05:03:38.831Z,3.45
2023-04-09T05:06:06.276Z,4.43
2023-04-09T05:08:33.515Z,6.32
2023-04-09T05:11:00.768Z,6.05
2023-04-09T05:13:28.160Z,6.45
2023-04-09T05:15:55.698Z,2.65
2023-04-09T05:18:23.038Z,4.68
2023-04-09T05:20:50.509Z,5.03
2023-04-09T05:23:17.810Z,4.35
2023-04-09T05:25:45.208Z,5.68
2023-04-09T05:28:12.547Z,3.17
2023-04-09T05:30:39.888Z,3.65
2023-04-09T05:33:07.166Z,6.22
2023-04-09T05:35:34.511Z,4.70
2023-04-09T05:38:01.942Z,4.30
2023-04-09T05:40:29.248Z,5.13
2023-04-09T05:42:56.638Z,4.32
2023-04-09T05:45:24.009Z,6.07
2023-04-09T05:47:51.691Z,5.43
2023-04-09T05:50:19.013Z,5.50
2023-04-09T05:52:46.266Z,6.00
2023-04-09T05:55:13.795Z,3.88
2023-04-09T05:57:42.245Z,3.95
2023-04-09T06:00:09.708Z,6.80
2023-04-09T06:02:37.060Z,5.30
2023-04-09T06:05:04.615Z,6.03
2023-04-09T06:07:31.905Z,4.25
2023-04-09T06:09:59.141Z,6.90
2023-04-09T06:12:26.422Z,5.40
2023-04-09T06:14:53.812Z,5.57
2023-04-09T06:17:21.154Z,6.07
2023-04-09T06:19:48.398Z,6.95
2023-04-09T06:22:15.672Z,5.95
2023-04-09T06:24:43.059Z,9.18
2023-04-09T06:27:10.609Z,6.85
2023-04-09T06:29:37.818Z,7.55
2023-04-09T06:32:05.810Z,6.07
2023-04-09T06:34:33.103Z,7.38
2023-04-09T06:37:00.415Z,6.65
2023-04-09T06:39:27.994Z,7.45
2023-04-09T06:41:55.262Z,5.57
2023-04-09T06:44:24.331Z,6.90
2023-04-09T06:46:51.899Z,4.35
2023-04-09T06:49:19.386Z,8.10
2023-04-09T06:51:46.729Z,6.13
2023-04-09T06:54:14.030Z,5.82
2023-04-09T06:56:41.365Z,7.25
2023-04-09T06:59:08.617Z,7.75
2023-04-09T07:01:37.835Z,5.93
2023-04-09T07:04:05.917Z,6.63
2023-04-09T07:06:33.212Z,7.97
2023-04-09T07:09:00.630Z,6.38
2023-04-09T07:11:27.876Z,6.13
2023-04-09T07:13:56.894Z,5.45
2023-04-09T07:16:24.421Z,5.85
2023-04-09T07:18:51.718Z,7.93
2023-04-09T07:21:19.230Z,7.97
2023-04-09T07:23:46.874Z,5.53
2023-04-09T07:26:14.194Z,6.00
2023-04-09T07:28:42.304Z,7.57
2023-04-09T07:31:09.611Z,7.30
2023-04-09T07:33:36.880Z,5.55
2023-04-09T07:36:04.254Z,6.25
2023-04-09T07:38:31.678Z,5.40
2023-04-09T07:40:58.998Z,7.55
2023-04-09T07:43:26.304Z,6.72
2023-04-09T07:45:53.608Z,5.90
2023-04-09T07:48:21.196Z,7.53
2023-04-09T07:50:48.462Z,6.97
2023-04-09T07:53:16.549Z,7.05
2023-04-09T07:55:43.846Z,8.60
2023-04-09T07:58:11.869Z,5.88
2023-04-09T08:00:39.220Z,5.72
2023-04-09T08:03:07.109Z,6.85
2023-04-09T08:05:36.486Z,7.57
2023-04-09T08:08:03.889Z,8.65
2023-04-09T08:10:31.366Z,6.72
2023-04-09T08:12:58.592Z,7.47
2023-04-09T08:15:26.193Z,9.38
2023-04-09T08:17:53.513Z,9.00
2023-04-09T08:20:20.862Z,7.47
2023-04-09T08:22:48.711Z,8.85
2023-04-09T08:25:16.028Z,9.35
2023-04-09T08:27:43.287Z,9.20
2023-04-09T08:30:11.149Z,9.82
2023-04-09T08:32:38.534Z,5.40
2023-04-09T08:35:06.318Z,7.18
2023-04-09T08:37:33.621Z,6.80
2023-04-09T08:40:00.897Z,6.82
2023-04-09T08:42:28.362Z,7.95
2023-04-09T08:44:55.630Z,7.95
2023-04-09T08:47:23.445Z,6.60
2023-04-09T08:49:51.025Z,6.25
2023-04-09T08:52:21.990Z,8.05
2023-04-09T08:54:50.095Z,8.13
2023-04-09T08:57:17.731Z,6.72
2023-04-09T08:59:45.265Z,6.28
2023-04-09T09:02:12.886Z,6.50
2023-04-09T09:04:49.892Z,7.78
2023-04-09T09:07:17.758Z,6.28
2023-04-09T09:09:52.758Z,7.30
2023-04-09T09:12:39.218Z,6.50
2023-04-09T09:15:07.490Z,5.10
2023-04-09T09:17:35.347Z,5.78
2023-04-09T09:20:19.692Z,5.68
2023-04-09T09:23:05.293Z,8.80
2023-04-09T09:25:38.434Z,6.45
2023-04-09T09:28:10.070Z,6.90
2023-04-09T09:30:39.203Z,9.27
2023-04-09T09:33:10.742Z,7.30
2023-04-09T09:35:54.548Z,6.75
2023-04-09T09:38:21.991Z,8.25
2023-04-09T09:40:50.333Z,7.85
2023-04-09T09:43:17.596Z,6.80
2023-04-09T09:45:45.125Z,7.32
2023-04-09T09:48:15.485Z,6.38
2023-04-09T09:50:43.528Z,6.40
2023-04-09T09:53:11.828Z,6.65
2023-04-09T09:55:40.540Z,4.85
2023-04-09T09:58:18.059Z,7.40
2023-04-09T10:00:48.425Z,6.72
2023-04-09T10:03:17.109Z,5.80
2023-04-09T10:05:45.971Z,5.63
2023-04-09T10:08:13.377Z,5.80
2023-04-09T10:10:45.051Z,6.28
2023-04-09T10:13:15.641Z,6.75
2023-04-09T10:15:44.715Z,4.70
2023-04-09T10:18:12.259Z,6.68
2023-04-09T10:20:48.952Z,7.78
2023-04-09T10:23:20.318Z,5.82
2023-04-09T10:25:47.746Z,6.72
2023-04-09T10:28:18.916Z,5.30
2023-04-09T10:30:46.516Z,6.70
2023-04-09T10:33:15.127Z,5.47
2023-04-09T10:35:42.608Z,7.03
2023-04-09T10:38:10.868Z,4.40
2023-04-09T10:40:56.414Z,6.45
2023-04-09T10:43:24.225Z,5.43
2023-04-09T10:45:54.630Z,5.68
2023-04-09T10:48:22.266Z,6.60
2023-04-09T10:50:54.067Z,8.20
2023-04-09T10:53:25.220Z,7.68
2023-04-09T10:55:56.329Z,6.50
2023-04-09T10:58:23.558Z,6.50
2023-04-09T11:00:51.541Z,4.60
2023-04-09T11:03:30.612Z,6.97
2023-04-09T11:06:02.663Z,6.22
2023-04-09T11:08:31.528Z,7.17
2023-04-09T11:11:01.069Z,6.55
2023-04-09T11:13:28.971Z,6.00
2023-04-09T11:15:56.925Z,7.68
2023-04-09T11:18:28.325Z,5.90
2023-04-09T11:20:56.549Z,5.15
2023-04-09T11:23:24.929Z,5.85
2023-04-09T11:25:52.850Z,8.25
2023-04-09T11:28:20.693Z,7.43
2023-04-09T11:30:48.450Z,7.82
2023-04-09T11:33:17.455Z,6.72
2023-04-09T11:35:46.574Z,6.63
2023-04-09T11:38:13.958Z,4.93
2023-04-09T11:40:47.868Z,8.05
2023-04-09T11:43:20.979Z,6.22
2023-04-09T11:45:48.943Z,6.80
2023-04-09T11:48:18.395Z,6.63
2023-04-09T11:50:46.682Z,9.13
2023-04-09T11:53:20.732Z,6.38
2023-04-09T11:55:49.199Z,8.82
2023-04-09T11:58:16.690Z,6.15
2023-04-09T12:00:44.117Z,7.53
2023-04-09T12:03:11.964Z,7.57
2023-04-09T12:05:42.134Z,7.75
2023-04-09T12:08:11.069Z,5.55
2023-04-09T12:10:39.111Z,7.70
2023-04-09T12:13:07.127Z,6.80
2023-04-09T12:15:35.562Z,7.88
2023-04-09T12:18:03.812Z,6.10
2023-04-09T12:20:31.266Z,6.43
2023-04-09T12:23:00.360Z,7.68
2023-04-09T12:25:28.391Z,6.38
2023-04-09T12:27:56.626Z,8.32
2023-04-09T12:30:24.369Z,5.85
2023-04-09T12:32:52.932Z,5.82
2023-04-09T12:35:20.474Z,8.27
2023-04-09T12:37:47.790Z,7.00
2023-04-09T12:40:15.629Z,5.60
2023-04-09T12:42:43.477Z,7.20
2023-04-09T12:45:11.935Z,6.20
2023-04-09T12:47:42.323Z,6.30
2023-04-09T12:50:10.303Z,6.63
2023-04-09T12:52:37.662Z,6.03
2023-04-09T12:55:05.933Z,6.72
2023-04-09T12:57:33.627Z,4.55
2023-04-09T13:00:01.036Z,5.97
2023-04-09T13:02:28.501Z,7.32
2023-04-09T13:04:55.855Z,7.25
2023-04-09T13:07:23.561Z,7.22
2023-04-09T13:09:50.866Z,7.05
2023-04-09T13:12:18.348Z,6.40
2023-04-09T13:14:47.359Z,7.05
2023-04-09T13:17:15.486Z,5.05
2023-04-09T13:19:43.063Z,6.50
2023-04-09T13:22:10.786Z,6.75
2023-04-09T13:24:38.490Z,6.68
2023-04-09T13:27:06.793Z,7.50
2023-04-09T13:29:34.089Z,6.03
2023-04-09T13:32:06.985Z,7.63
2023-04-09T13:34:35.092Z,8.30
2023-04-09T13:37:05.651Z,7.13
2023-04-09T13:39:33.292Z,6.78
2023-04-09T13:42:01.579Z,7.43
2023-04-09T13:44:32.785Z,7.32
2023-04-09T13:47:00.094Z,7.75
2023-04-09T13:49:27.584Z,6.50
2023-04-09T13:51:55.747Z,6.93
2023-04-09T13:54:23.135Z,6.93
2023-04-09T13:56:51.159Z,7.35
2023-04-09T13:59:18.610Z,6.88
2023-04-09T14:01:46.182Z,6.68
2023-04-09T14:04:13.602Z,6.10
2023-04-09T14:06:42.286Z,7.60
2023-04-09T14:09:09.928Z,7.75
2023-04-09T14:11:37.175Z,6.45
2023-04-09T14:14:04.699Z,4.88
2023-04-09T14:16:32.074Z,6.70
2023-04-09T14:18:59.434Z,6.57
2023-04-09T14:21:27.056Z,6.90
2023-04-09T14:23:54.446Z,8.52
2023-04-09T14:26:24.258Z,6.90
2023-04-09T14:28:52.190Z,8.27
2023-04-09T14:31:22.834Z,6.28
2023-04-09T14:33:50.390Z,6.85
2023-04-09T14:36:18.308Z,6.82
2023-04-09T14:38:46.107Z,7.18
2023-04-09T14:41:13.382Z,6.30
2023-04-09T14:43:40.833Z,8.48
2023-04-09T14:46:11.635Z,7.03
2023-04-09T14:48:42.005Z,7.75
2023-04-09T14:51:13.496Z,7.55
2023-04-09T14:53:40.795Z,8.65
2023-04-09T14:56:08.231Z,5.35
2023-04-09T14:58:36.347Z,5.57
2023-04-09T15:01:04.639Z,6.55
2023-04-09T15:03:32.135Z,7.68
2023-04-09T15:06:00.051Z,7.20
2023-04-09T15:08:27.432Z,8.00
2023-04-09T15:10:54.803Z,8.05
2023-04-09T15:13:22.191Z,9.18
2023-04-09T15:15:49.932Z,6.65
2023-04-09T15:18:17.316Z,8.55
2023-04-09T15:20:44.652Z,6.93
2023-04-09T15:23:12.126Z,6.25
2023-04-09T15:25:39.616Z,5.45
2023-04-09T15:28:07.255Z,6.85
2023-04-09T15:30:35.758Z,7.43
2023-04-09T15:33:03.129Z,9.18
2023-04-09T15:35:30.650Z,7.32
2023-04-09T15:37:58.143Z,6.82
2023-04-09T15:40:25.479Z,4.85
2023-04-09T15:42:52.986Z,5.88
2023-04-09T15:45:20.429Z,7.90
2023-04-09T15:47:47.877Z,6.63
2023-04-09T15:50:15.500Z,8.02
2023-04-09T15:52:42.804Z,5.70
2023-04-09T15:55:10.311Z,3.95
2023-04-09T15:57:38.611Z,6.32
2023-04-09T16:00:09.710Z,6.72
2023-04-09T16:02:38.813Z,7.95
2023-04-09T16:05:07.182Z,4.88
2023-04-09T16:07:34.561Z,5.63
2023-04-09T16:10:02.620Z,8.60
2023-04-09T16:12:29.914Z,8.18
2023-04-09T16:14:57.248Z,4.97
2023-04-09T16:17:24.607Z,6.45
2023-04-09T16:19:51.909Z,6.32
2023-04-09T16:22:19.164Z,7.78
2023-04-09T16:24:46.596Z,5.47
2023-04-09T16:27:14.946Z,7.90
2023-04-09T16:29:42.423Z,6.50
2023-04-09T16:32:09.812Z,5.72
2023-04-09T16:34:37.111Z,6.93
2023-04-09T16:37:04.461Z,5.85
2023-04-09T16:39:31.746Z,5.95
2023-04-09T16:41:59.237Z,6.63
2023-04-09T16:44:26.643Z,6.00
2023-04-09T16:46:53.907Z,6.20
2023-04-09T16:49:21.211Z,5.22
2023-04-09T16:51:48.642Z,6.80
2023-04-09T16:54:15.922Z,5.85
2023-04-09T16:56:43.245Z,5.47
2023-04-09T16:59:12.130Z,6.18
2023-04-09T17:01:39.486Z,7.05
2023-04-09T17:04:06.832Z,5.95
2023-04-09T17:06:34.150Z,7.38
2023-04-09T17:09:03.647Z,6.38
2023-04-09T17:11:32.624Z,5.88
2023-04-09T17:14:00.005Z,5.85
2023-04-09T17:16:27.828Z,5.15
2023-04-09T17:18:55.263Z,6.35
2023-04-09T17:21:22.781Z,4.32
2023-04-09T17:23:50.273Z,6.10
2023-04-09T17:26:17.576Z,6.28
2023-04-09T17:28:46.661Z,5.50
2023-04-09T17:31:14.717Z,4.57
2023-04-09T17:33:43.082Z,4.38
2023-04-09T17:36:10.406Z,7.45
2023-04-09T17:38:37.730Z,6.13
2023-04-09T17:41:07.382Z,6.45
2023-04-09T17:43:34.900Z,5.47
2023-04-09T17:46:02.850Z,5.75
2023-04-09T17:48:31.939Z,5.43
2023-04-09T17:50:59.452Z,6.20
2023-04-09T17:53:27.150Z,6.40
2023-04-09T17:55:55.856Z,5.25
2023-04-09T17:58:24.395Z,5.63
2023-04-09T18:00:53.188Z,5.80
2023-04-09T18:03:21.043Z,6.82
2023-04-09T18:05:48.735Z,5.95
2023-04-09T18:08:16.450Z,4.28
2023-04-09T18:10:43.736Z,4.55
2023-04-09T18:13:11.033Z,7.03
2023-04-09T18:15:38.421Z,6.13
2023-04-09T18:18:05.841Z,5.25
2023-04-09T18:20:33.163Z,4.22
2023-04-09T18:23:00.699Z,5.20
2023-04-09T18:25:28.767Z,4.65
2023-04-09T18:27:56.242Z,6.07
2023-04-09T18:30:23.522Z,6.65
2023-04-09T18:32:51.859Z,5.05
2023-04-09T18:35:19.385Z,5.05
2023-04-09T18:37:46.656Z,6.45
2023-04-09T18:40:17.502Z,4.10
2023-04-09T18:42:45.154Z,5.38
2023-04-09T18:45:12.592Z,5.13
2023-04-09T18:47:40.520Z,4.75
2023-04-09T18:50:08.175Z,4.03
2023-04-09T18:52:38.366Z,4.82
2023-04-09T18:55:05.886Z,5.65
2023-04-09T18:57:33.549Z,4.00
2023-04-09T19:00:03.055Z,5.47
2023-04-09T19:02:30.829Z,4.80
2023-04-09T19:04:59.110Z,4.55
2023-04-09T19:07:26.445Z,7.03
2023-04-09T19:09:53.736Z,4.88
2023-04-09T19:12:21.265Z,7.00
2023-04-09T19:14:48.528Z,6.80
2023-04-09T19:17:15.777Z,4.93
2023-04-09T19:19:43.318Z,6.45
2023-04-09T19:22:10.547Z,5.55
2023-04-09T19:24:37.925Z,5.85
2023-04-09T19:27:09.666Z,4.82
2023-04-09T19:29:37.112Z,4.50
2023-04-09T19:32:05.822Z,6.13
2023-04-09T19:34:33.152Z,4.72
2023-04-09T19:37:00.858Z,3.78
2023-04-09T19:39:28.130Z,4.72
2023-04-09T19:41:55.611Z,5.10
2023-04-09T19:44:23.719Z,5.50
2023-04-09T19:46:51.171Z,7.72
2023-04-09T19:49:18.493Z,5.10
2023-04-09T19:51:45.893Z,5.45
2023-04-09T19:54:15.141Z,4.03
2023-04-09T19:56:42.593Z,3.95
2023-04-09T19:59:09.879Z,4.25
2023-04-09T20:01:37.384Z,5.53
2023-04-09T20:04:05.428Z,6.05
2023-04-09T20:06:33.293Z,4.70
2023-04-09T20:09:01.246Z,3.50
2023-04-09T20:11:28.651Z,5.90
2023-04-09T20:13:57.240Z,4.40
2023-04-09T20:16:24.606Z,4.18
2023-04-09T20:18:52.110Z,2.72
2023-04-09T20:21:19.495Z,3.53
2023-04-09T20:23:46.845Z,3.72
2023-04-09T20:26:14.189Z,4.00
2023-04-09T20:28:41.864Z,6.78
2023-04-09T20:31:09.182Z,5.32
2023-04-09T20:33:36.413Z,3.22
2023-04-09T20:36:03.734Z,4.70
2023-04-09T20:38:31.783Z,4.43
2023-04-09T20:40:59.079Z,3.40
2023-04-09T20:43:26.389Z,3.75
2023-04-09T20:45:53.770Z,3.40
2023-04-09T20:48:21.202Z,3.03
2023-04-09T20:50:48.486Z,2.97
2023-04-09T20:53:15.737Z,5.72
2023-04-09T20:55:43.143Z,4.05
2023-04-09T20:58:10.466Z,3.55
2023-04-09T21:00:37.690Z,4.15
2023-04-09T21:03:05.147Z,5.15
2023-04-09T21:05:32.921Z,4.95
2023-04-09T21:08:00.234Z,6.03
2023-04-09T21:10:27.455Z,5.30
2023-04-09T21:12:54.740Z,3.78
2023-04-09T21:15:22.011Z,3.72
2023-04-09T21:17:49.392Z,3.47
2023-04-09T21:20:16.797Z,3.50
2023-04-09T21:22:44.162Z,4.38
2023-04-09T21:25:13.790Z,4.63
2023-04-09T21:27:42.506Z,4.10
2023-04-09T21:30:09.981Z,3.53
2023-04-09T21:32:37.325Z,2.63
2023-04-09T21:35:05.183Z,3.00
2023-04-09T21:37:33.769Z,4.80
2023-04-09T21:40:01.008Z,5.00
2023-04-09T21:42:31.487Z,3.47
2023-04-09T21:44:58.907Z,4.80
2023-04-09T21:47:27.521Z,3.70
2023-04-09T21:49:54.884Z,4.03
2023-04-09T21:52:22.472Z,3.28
2023-04-09T21:54:49.847Z,4.07
2023-04-09T21:57:17.199Z,3.20
2023-04-09T21:59:44.552Z,5.03
2023-04-09T22:02:11.938Z,4.40
2023-04-09T22:04:42.624Z,2.67
2023-04-09T22:07:10.606Z,4.32
2023-04-09T22:09:38.258Z,4.25
2023-04-09T22:12:05.626Z,3.40
2023-04-09T22:14:33.250Z,3.92
2023-04-09T22:17:01.806Z,4.25
2023-04-09T22:19:29.742Z,3.75
2023-04-09T22:21:56.992Z,4.40
2023-04-09T22:24:27.243Z,4.10
2023-04-09T22:26:54.595Z,3.20
2023-04-09T22:29:21.912Z,3.75
2023-04-09T22:31:49.307Z,2.47
2023-04-09T22:34:21.426Z,3.38
2023-04-09T22:39:16.678Z,2.63
2023-04-09T22:41:44.090Z,3.92
2023-04-09T22:44:11.499Z,2.97
2023-04-09T22:46:38.852Z,3.42
2023-04-09T22:49:06.574Z,2.08
2023-04-09T22:51:38.538Z,3.08
2023-04-09T22:54:07.573Z,2.78
2023-04-09T22:56:34.877Z,2.53
2023-04-09T22:59:02.110Z,4.95
2023-04-09T23:01:29.498Z,2.40
2023-04-09T23:03:56.765Z,2.95
2023-04-09T23:06:25.090Z,3.53
2023-04-09T23:08:52.759Z,2.67
2023-04-09T23:11:21.026Z,2.58
2023-04-09T23:13:48.324Z,2.72
2023-04-09T23:16:15.884Z,1.95
2023-04-09T23:18:43.216Z,1.95
2023-04-09T23:21:11.061Z,1.60
2023-04-09T23:23:39.014Z,1.45
2023-04-09T23:26:06.813Z,0.88
2023-04-09T23:28:35.299Z,1.05
2023-04-09T23:31:02.672Z,1.65
2023-04-09T23:33:30.001Z,1.55
2023-04-09T23:35:57.382Z,1.50
2023-04-09T23:38:24.653Z,1.25
2023-04-09T23:40:51.883Z,1.02
2023-04-09T23:43:19.191Z,1.52
2023-04-09T23:45:46.608Z,0.70
2023-04-09T23:48:13.865Z,1.38
2023-04-09T23:50:43.954Z,0.47
2023-04-09T23:53:11.604Z,1.20
2023-04-09T23:55:41.102Z,0.43
2023-04-09T23:58:09.580Z,1.00
